Time;durP1;ratioP1;P1;durP2;ratioP2;P2;SDS_P1;SDS_P2;PMS_P1;PMS_P2;Temp;Humidity;BMP_temperature;BMP_pressure;BME280_temperature;BME280_humidity;BME280_pressure;Samples;Min_cycle;Max_cycle;Signal;HPM_P1;HPM_P2
2021/12/20 00:00:36;;;;;;;17.40;11.75;;;2.50;99.90;;;;;;5009139;28;20234;-73
2021/12/20 00:03:03;;;;;;;15.15;11.23;;;2.50;99.90;;;;;;5008618;28;20218;-73
2021/12/20 00:05:30;;;;;;;20.88;12.85;;;2.60;99.90;;;;;;5008752;28;20221;-74
2021/12/20 00:07:58;;;;;;;19.23;12.25;;;2.60;99.90;;;;;;5009274;28;20210;-73
2021/12/20 00:10:25;;;;;;;18.00;11.35;;;2.60;99.90;;;;;;5008613;28;20206;-73
2021/12/20 00:12:52;;;;;;;17.77;11.82;;;2.60;99.90;;;;;;5008402;28;20713;-73
2021/12/20 00:15:19;;;;;;;17.65;11.55;;;2.50;99.90;;;;;;5009089;28;20202;-73
2021/12/20 00:17:46;;;;;;;19.98;11.50;;;2.60;99.90;;;;;;5009268;28;20635;-73
2021/12/20 00:20:14;;;;;;;18.02;12.30;;;2.50;99.90;;;;;;5008394;28;20214;-73
2021/12/20 00:22:41;;;;;;;18.27;11.77;;;2.60;99.90;;;;;;5007943;28;20222;-73
2021/12/20 00:25:10;;;;;;;16.73;11.60;;;2.50;99.90;;;;;;5008410;28;20306;-73
2021/12/20 00:27:37;;;;;;;19.83;12.57;;;2.50;99.90;;;;;;5008696;28;20268;-73
2021/12/20 00:30:05;;;;;;;16.25;10.32;;;2.50;99.90;;;;;;5008176;28;20199;-73
2021/12/20 00:32:32;;;;;;;18.67;11.90;;;2.50;99.90;;;;;;5008232;28;20222;-73
2021/12/20 00:34:58;;;;;;;18.23;11.75;;;2.50;99.90;;;;;;5008908;28;20210;-73
2021/12/20 00:40:21;;;;;;;17.55;10.43;;;2.60;99.90;;;;;;5008671;28;20221;-73
2021/12/20 00:42:49;;;;;;;20.02;11.85;;;2.60;99.90;;;;;;5008139;28;20729;-73
2021/12/20 00:45:16;;;;;;;20.83;11.70;;;2.60;99.90;;;;;;5008085;28;20210;-73
2021/12/20 00:47:43;;;;;;;23.52;13.07;;;2.60;99.90;;;;;;5008313;28;20214;-73
2021/12/20 00:50:12;;;;;;;17.13;11.57;;;2.60;99.90;;;;;;5008826;28;20205;-73
2021/12/20 00:52:39;;;;;;;18.85;11.45;;;2.60;99.90;;;;;;5007459;28;20317;-72
2021/12/20 00:55:07;;;;;;;18.33;11.55;;;2.60;99.90;;;;;;5007992;28;20203;-73
2021/12/20 00:57:36;;;;;;;18.17;12.40;;;2.60;99.90;;;;;;5008094;28;20674;-73
2021/12/20 01:00:04;;;;;;;24.85;13.70;;;2.60;99.90;;;;;;5008588;28;20698;-71
2021/12/20 01:02:31;;;;;;;20.25;11.80;;;2.60;99.90;;;;;;5008017;28;20223;-71
2021/12/20 01:04:58;;;;;;;19.33;12.25;;;2.60;99.90;;;;;;5011309;28;20306;-72
2021/12/20 01:07:24;;;;;;;26.75;13.68;;;2.60;99.90;;;;;;5011405;28;20681;-72
2021/12/20 01:09:53;;;;;;;20.55;12.90;;;2.60;99.90;;;;;;5011845;28;20198;-72
2021/12/20 01:12:20;;;;;;;20.80;12.60;;;2.60;99.90;;;;;;5010368;28;20201;-72
2021/12/20 01:14:57;;;;;;;21.85;12.23;;;2.60;99.90;;;;;;5011313;28;20242;-72
2021/12/20 01:17:24;;;;;;;21.15;12.35;;;2.60;99.90;;;;;;5010944;28;20242;-71
2021/12/20 01:19:51;;;;;;;25.00;14.35;;;2.60;99.90;;;;;;5010412;28;20666;-72
2021/12/20 01:22:17;;;;;;;20.05;12.52;;;2.60;99.90;;;;;;5009637;28;20214;-72
2021/12/20 01:24:44;;;;;;;18.98;11.77;;;2.70;99.90;;;;;;5010794;28;20215;-72
2021/12/20 01:27:11;;;;;;;20.35;12.23;;;2.70;99.90;;;;;;5010426;28;20211;-72
2021/12/20 01:29:38;;;;;;;23.13;13.05;;;2.70;99.90;;;;;;5010738;28;20578;-72
2021/12/20 01:32:06;;;;;;;23.40;13.23;;;2.70;99.90;;;;;;5010178;28;20207;-72
2021/12/20 01:34:33;;;;;;;20.30;13.68;;;2.70;99.90;;;;;;5010403;28;20210;-72
2021/12/20 01:37:00;;;;;;;27.02;13.05;;;2.70;99.90;;;;;;5011208;28;20637;-72
2021/12/20 01:39:27;;;;;;;21.35;13.35;;;2.70;99.90;;;;;;5010559;28;20202;-72
2021/12/20 01:41:53;;;;;;;20.92;13.25;;;2.70;99.90;;;;;;5010215;28;20222;-72
2021/12/20 01:44:21;;;;;;;20.67;13.18;;;2.60;99.90;;;;;;5010189;28;20230;-72
2021/12/20 01:46:48;;;;;;;22.95;14.02;;;2.60;99.90;;;;;;5087349;22;20234;-77
2021/12/20 01:49:17;;;;;;;22.48;14.73;;;2.70;99.90;;;;;;5031413;28;20567;-75
2021/12/20 01:51:50;;;;;;;23.15;15.23;;;2.70;99.90;;;;;;5033001;28;20202;-77
2021/12/20 01:54:17;;;;;;;23.08;14.77;;;2.60;99.90;;;;;;5033029;28;20253;-77
2021/12/20 01:56:45;;;;;;;23.58;13.63;;;2.70;99.90;;;;;;5033202;28;20711;-76
2021/12/20 01:59:12;;;;;;;24.13;13.30;;;2.70;99.90;;;;;;5033736;28;20201;-76
2021/12/20 02:01:41;;;;;;;24.58;13.52;;;2.70;99.90;;;;;;5032631;28;20244;-77
2021/12/20 02:04:09;;;;;;;22.10;13.23;;;2.60;99.90;;;;;;5032715;28;20226;-77
2021/12/20 02:06:39;;;;;;;27.35;15.00;;;2.70;99.90;;;;;;5032883;28;20209;-75
2021/12/20 02:09:09;;;;;;;18.88;12.20;;;2.70;99.90;;;;;;5032611;28;20213;-77
2021/12/20 02:11:36;;;;;;;23.48;13.65;;;2.60;99.90;;;;;;5032076;28;20205;-77
2021/12/20 02:14:03;;;;;;;24.00;14.48;;;2.60;99.90;;;;;;5032734;28;20221;-77
2021/12/20 02:16:30;;;;;;;24.77;13.85;;;2.70;99.90;;;;;;5032697;28;20202;-77
2021/12/20 02:18:57;;;;;;;20.52;12.90;;;2.60;99.90;;;;;;5032684;28;20707;-76
2021/12/20 02:21:25;;;;;;;16.05;10.80;;;2.60;99.90;;;;;;5032264;28;20636;-76
2021/12/20 02:23:52;;;;;;;22.73;13.45;;;2.60;99.90;;;;;;5032510;28;20221;-76
2021/12/20 02:26:19;;;;;;;20.15;12.27;;;2.50;99.90;;;;;;5032403;28;20615;-76
2021/12/20 02:28:48;;;;;;;20.90;12.80;;;2.50;99.90;;;;;;5032496;28;20197;-76
2021/12/20 02:37:00;;;;;;;20.33;13.90;;;2.50;99.90;;;;;;5033069;28;20208;-76
2021/12/20 02:39:27;;;;;;;20.60;13.25;;;2.50;99.90;;;;;;5032675;28;20256;-77
2021/12/20 02:41:54;;;;;;;20.35;12.25;;;2.50;99.90;;;;;;5032113;28;20622;-75
2021/12/20 02:44:23;;;;;;;21.73;12.43;;;2.50;99.90;;;;;;5032498;28;20222;-77
2021/12/20 02:47:04;;;;;;;21.10;12.55;;;2.50;99.90;;;;;;5029677;28;20209;-76
2021/12/20 02:49:31;;;;;;;18.40;12.20;;;2.50;99.90;;;;;;5031615;28;20213;-75
2021/12/20 02:52:03;;;;;;;24.80;15.85;;;2.50;99.90;;;;;;5031725;28;20202;-77
2021/12/20 02:54:31;;;;;;;21.00;13.13;;;2.50;99.90;;;;;;5032337;28;20716;-76
2021/12/20 02:56:57;;;;;;;21.05;12.43;;;2.50;99.90;;;;;;5032344;28;20224;-76
2021/12/20 02:59:24;;;;;;;21.02;12.35;;;2.50;99.90;;;;;;5032876;28;20575;-77
2021/12/20 03:01:55;;;;;;;21.30;11.70;;;2.50;99.90;;;;;;5031808;28;20309;-77
2021/12/20 03:04:22;;;;;;;22.50;14.20;;;2.50;99.90;;;;;;5032747;28;20225;-75
2021/12/20 03:06:52;;;;;;;22.27;13.55;;;2.50;99.90;;;;;;5032314;28;20202;-76
2021/12/20 03:09:22;;;;;;;17.92;11.43;;;2.50;99.90;;;;;;5032468;28;20206;-77
2021/12/20 03:11:54;;;;;;;18.02;11.35;;;2.40;99.90;;;;;;5031915;28;20581;-74
2021/12/20 03:14:26;;;;;;;20.13;12.52;;;2.40;99.90;;;;;;5032579;28;20234;-77
2021/12/20 03:16:53;;;;;;;21.08;12.48;;;2.40;99.90;;;;;;5031809;28;20204;-74
2021/12/20 03:19:21;;;;;;;20.58;11.90;;;2.40;99.90;;;;;;5032171;28;20197;-77
2021/12/20 03:21:48;;;;;;;19.27;12.77;;;2.40;99.90;;;;;;5031546;28;20225;-76
2021/12/20 03:24:15;;;;;;;20.48;12.88;;;2.30;99.90;;;;;;5031828;28;21151;-77
2021/12/20 03:26:43;;;;;;;20.83;12.00;;;2.30;99.90;;;;;;5031672;28;20202;-76
2021/12/20 03:29:10;;;;;;;20.88;12.80;;;2.30;99.90;;;;;;5031790;28;20210;-77
2021/12/20 03:31:37;;;;;;;22.17;12.48;;;2.30;99.90;;;;;;5030994;28;20194;-76
2021/12/20 03:34:05;;;;;;;21.27;12.63;;;2.30;99.90;;;;;;5031085;28;20229;-76
2021/12/20 03:36:32;;;;;;;19.45;10.85;;;2.30;99.90;;;;;;5032078;28;20197;-75
2021/12/20 03:38:59;;;;;;;22.27;13.23;;;2.30;99.90;;;;;;5031372;28;20202;-77
2021/12/20 03:41:26;;;;;;;21.63;11.48;;;2.30;99.90;;;;;;5031099;28;20308;-75
2021/12/20 03:43:54;;;;;;;21.67;12.65;;;2.30;99.90;;;;;;5031769;28;20218;-76
2021/12/20 03:46:21;;;;;;;21.27;13.60;;;2.30;99.90;;;;;;5031157;28;20669;-77
2021/12/20 03:48:48;;;;;;;22.40;11.93;;;2.30;99.90;;;;;;5031191;28;20201;-77
2021/12/20 03:51:15;;;;;;;23.23;12.13;;;2.30;99.90;;;;;;5030547;28;20205;-77
2021/12/20 03:53:41;;;;;;;24.52;12.57;;;2.30;99.90;;;;;;5031487;28;20222;-77
2021/12/20 03:56:08;;;;;;;19.88;12.90;;;2.20;99.90;;;;;;5031480;28;20206;-76
2021/12/20 03:58:35;;;;;;;22.20;11.30;;;2.30;99.90;;;;;;5031394;28;20205;-76
2021/12/20 04:01:06;;;;;;;19.73;12.80;;;2.30;99.90;;;;;;5030786;28;20663;-77
2021/12/20 04:03:35;;;;;;;19.00;12.05;;;2.30;99.90;;;;;;5031107;28;20229;-77
2021/12/20 04:06:03;;;;;;;24.42;14.45;;;2.30;99.90;;;;;;5031163;28;20271;-76
2021/12/20 04:08:30;;;;;;;23.02;13.02;;;2.30;99.90;;;;;;5030736;28;20206;-76
2021/12/20 04:10:57;;;;;;;21.02;12.65;;;2.30;99.90;;;;;;5030427;28;20193;-76
2021/12/20 04:13:24;;;;;;;22.83;12.77;;;2.30;99.90;;;;;;5031090;28;20230;-77
2021/12/20 04:15:51;;;;;;;18.90;11.35;;;2.40;99.90;;;;;;5031014;28;20201;-76
2021/12/20 04:18:19;;;;;;;20.25;12.02;;;2.40;99.90;;;;;;5031768;28;20560;-77
2021/12/20 04:20:46;;;;;;;23.67;13.90;;;2.40;99.90;;;;;;5030858;28;20206;-76
2021/12/20 04:23:13;;;;;;;21.27;12.55;;;2.40;99.90;;;;;;5030484;28;20720;-75
2021/12/20 04:25:40;;;;;;;19.80;11.98;;;2.40;99.90;;;;;;5030200;28;20198;-76
2021/12/20 04:28:06;;;;;;;19.90;11.60;;;2.40;99.90;;;;;;5032228;28;20209;-78
2021/12/20 04:30:34;;;;;;;24.17;13.88;;;2.40;99.90;;;;;;5033659;28;20213;-78
2021/12/20 04:33:01;;;;;;;17.50;11.23;;;2.40;99.90;;;;;;5035539;28;20213;-78
2021/12/20 04:35:30;;;;;;;21.58;12.90;;;2.40;99.90;;;;;;5052843;28;20201;-77
2021/12/20 04:37:58;;;;;;;21.10;11.55;;;2.40;99.90;;;;;;5053165;28;20205;-78
2021/12/20 04:40:25;;;;;;;18.73;11.02;;;2.40;99.90;;;;;;5056420;28;20207;-77
2021/12/20 04:42:54;;;;;;;21.67;12.73;;;2.40;99.90;;;;;;5054879;28;20684;-78
2021/12/20 04:45:21;;;;;;;20.00;11.90;;;2.40;99.90;;;;;;5057325;28;20197;-77
2021/12/20 04:47:48;;;;;;;22.15;13.02;;;2.40;99.90;;;;;;5055920;28;20224;-77
2021/12/20 04:50:15;;;;;;;18.65;12.63;;;2.40;99.90;;;;;;5057282;28;20208;-75
2021/12/20 04:52:44;;;;;;;21.60;13.13;;;2.40;99.90;;;;;;5056566;28;20739;-78
2021/12/20 04:55:12;;;;;;;18.40;11.02;;;2.40;99.90;;;;;;5056682;28;20205;-78
2021/12/20 04:57:41;;;;;;;20.23;12.15;;;2.40;99.90;;;;;;5056724;28;20204;-76
2021/12/20 05:00:11;;;;;;;19.95;12.23;;;2.50;99.90;;;;;;5055935;28;20227;-77
2021/12/20 05:02:38;;;;;;;19.15;12.00;;;2.50;99.90;;;;;;5055651;28;20233;-78
2021/12/20 05:05:05;;;;;;;20.08;12.18;;;2.50;99.90;;;;;;5056024;28;20205;-77
2021/12/20 05:07:32;;;;;;;19.45;12.05;;;2.50;99.90;;;;;;5056550;28;20200;-81
2021/12/20 05:10:02;;;;;;;20.00;12.20;;;2.40;99.90;;;;;;5055648;28;20224;-79
2021/12/20 05:12:29;;;;;;;21.40;12.70;;;2.50;99.90;;;;;;5054533;28;20704;-79
2021/12/20 05:14:56;;;;;;;19.05;11.65;;;2.50;99.90;;;;;;5055200;28;20204;-78
2021/12/20 05:17:23;;;;;;;23.92;12.93;;;2.50;99.90;;;;;;5054521;28;20212;-79
2021/12/20 05:19:49;;;;;;;20.38;13.10;;;2.50;99.90;;;;;;5053348;28;20460;-76
2021/12/20 05:22:16;;;;;;;20.23;13.30;;;2.50;99.90;;;;;;5052467;28;20225;-76
2021/12/20 05:24:43;;;;;;;18.92;12.00;;;2.50;99.90;;;;;;5053301;28;20197;-76
2021/12/20 05:27:11;;;;;;;18.98;12.82;;;2.50;99.90;;;;;;5053083;28;20209;-75
2021/12/20 05:29:38;;;;;;;19.15;13.32;;;2.50;99.90;;;;;;5053356;28;20680;-75
2021/12/20 05:32:07;;;;;;;21.92;12.82;;;2.50;99.90;;;;;;5052513;28;20205;-76
2021/12/20 05:34:34;;;;;;;23.13;13.55;;;2.50;99.90;;;;;;5053162;28;20198;-76
2021/12/20 05:37:01;;;;;;;19.67;11.90;;;2.50;99.90;;;;;;5052799;28;20208;-75
2021/12/20 05:39:28;;;;;;;19.52;12.80;;;2.50;99.90;;;;;;5053222;28;20205;-76
2021/12/20 05:41:55;;;;;;;22.65;12.98;;;2.50;99.90;;;;;;5052546;28;20233;-76
2021/12/20 05:44:23;;;;;;;22.73;12.48;;;2.50;99.90;;;;;;5052864;28;20232;-75
2021/12/20 05:46:50;;;;;;;20.77;12.20;;;2.50;99.90;;;;;;5052717;28;20262;-76
2021/12/20 05:49:16;;;;;;;23.92;12.73;;;2.50;99.90;;;;;;5052451;28;20216;-76
2021/12/20 05:51:43;;;;;;;20.80;12.23;;;2.50;99.90;;;;;;5052285;28;20578;-75
2021/12/20 05:54:10;;;;;;;22.35;12.80;;;2.50;99.90;;;;;;5052351;28;20225;-76
2021/12/20 05:56:36;;;;;;;21.63;11.95;;;2.50;99.90;;;;;;5052582;28;20205;-75
2021/12/20 05:59:03;;;;;;;21.60;11.88;;;2.50;99.90;;;;;;5052109;28;20209;-75
2021/12/20 06:01:31;;;;;;;19.73;12.18;;;2.50;99.90;;;;;;5052096;28;20227;-76
2021/12/20 06:03:58;;;;;;;21.00;12.40;;;2.50;99.90;;;;;;5052121;28;20221;-75
2021/12/20 06:06:27;;;;;;;17.42;10.98;;;2.60;99.90;;;;;;5052428;28;20201;-75
2021/12/20 06:08:54;;;;;;;17.88;10.75;;;2.50;99.90;;;;;;5052372;28;20235;-75
2021/12/20 06:11:20;;;;;;;21.90;12.50;;;2.50;99.90;;;;;;5051704;28;20575;-76
2021/12/20 06:13:47;;;;;;;16.92;10.02;;;2.50;99.90;;;;;;5051967;28;20225;-75
2021/12/20 06:16:14;;;;;;;15.55;10.10;;;2.50;99.90;;;;;;5052224;28;20610;-75
2021/12/20 06:18:42;;;;;;;17.63;10.82;;;2.50;99.90;;;;;;5052221;28;20236;-75
2021/12/20 06:21:09;;;;;;;17.23;11.40;;;2.50;99.90;;;;;;5051520;28;20205;-75
2021/12/20 06:23:35;;;;;;;16.85;9.82;;;2.50;99.90;;;;;;5052156;28;20231;-75
2021/12/20 06:26:02;;;;;;;19.08;10.40;;;2.50;99.90;;;;;;5051846;28;20608;-75
2021/12/20 06:28:30;;;;;;;17.90;10.73;;;2.50;99.90;;;;;;5051984;28;20672;-75
2021/12/20 06:30:56;;;;;;;20.10;11.23;;;2.50;99.90;;;;;;5041819;28;20293;-75
2021/12/20 06:33:23;;;;;;;15.80;10.98;;;2.50;99.90;;;;;;5039562;28;20209;-75
2021/12/20 06:35:52;;;;;;;17.73;10.30;;;2.50;99.90;;;;;;5040765;28;20626;-75
2021/12/20 06:38:20;;;;;;;15.02;9.25;;;2.50;99.90;;;;;;5040791;28;20217;-75
2021/12/20 06:40:47;;;;;;;17.67;10.63;;;2.50;99.90;;;;;;5036721;28;20634;-75
2021/12/20 06:43:15;;;;;;;16.98;9.75;;;2.50;99.90;;;;;;5041213;28;20592;-76
2021/12/20 06:45:41;;;;;;;16.85;9.52;;;2.50;99.90;;;;;;5036888;28;20201;-75
2021/12/20 06:48:08;;;;;;;14.10;8.38;;;2.50;99.90;;;;;;5031173;28;20267;-75
2021/12/20 06:50:35;;;;;;;15.05;9.68;;;2.50;99.90;;;;;;5031288;28;20779;-75
2021/12/20 06:53:05;;;;;;;16.48;9.90;;;2.50;99.90;;;;;;5030813;28;20218;-75
2021/12/20 06:55:32;;;;;;;14.15;9.48;;;2.50;99.90;;;;;;5031927;28;20248;-76
2021/12/20 06:57:59;;;;;;;12.85;9.40;;;2.50;99.90;;;;;;5031363;28;20205;-75
2021/12/20 07:00:27;;;;;;;17.23;10.00;;;2.50;99.90;;;;;;5031504;28;20210;-75
2021/12/20 07:02:53;;;;;;;15.82;9.93;;;2.50;99.90;;;;;;5029785;28;20280;-75
2021/12/20 07:05:20;;;;;;;15.30;8.90;;;2.50;99.90;;;;;;5031477;28;20229;-74
2021/12/20 07:07:47;;;;;;;16.45;9.88;;;2.50;99.90;;;;;;5031338;28;20205;-75
2021/12/20 07:10:15;;;;;;;18.58;10.32;;;2.50;99.90;;;;;;5031138;28;20583;-75
2021/12/20 07:12:42;;;;;;;15.60;8.90;;;2.60;99.90;;;;;;5030722;28;20278;-75
2021/12/20 07:15:11;;;;;;;14.73;10.38;;;2.60;99.90;;;;;;5030861;28;20201;-75
2021/12/20 07:17:38;;;;;;;13.20;9.75;;;2.60;99.90;;;;;;5031261;28;20626;-75
2021/12/20 07:20:06;;;;;;;17.65;9.43;;;2.60;99.90;;;;;;5031020;28;20206;-75
2021/12/20 07:22:33;;;;;;;18.63;9.98;;;2.60;99.90;;;;;;5030534;28;20233;-75
2021/12/20 07:25:00;;;;;;;18.88;9.80;;;2.60;99.90;;;;;;5030852;28;20194;-75
2021/12/20 07:27:28;;;;;;;14.90;9.02;;;2.60;99.90;;;;;;5031091;28;20885;-75
2021/12/20 07:29:55;;;;;;;18.15;9.20;;;2.60;99.90;;;;;;5030917;28;20221;-75
2021/12/20 07:32:21;;;;;;;17.40;10.10;;;2.60;99.90;;;;;;5030319;28;20205;-75
2021/12/20 07:34:48;;;;;;;16.73;10.13;;;2.60;99.90;;;;;;5030779;28;20673;-75
2021/12/20 07:37:15;;;;;;;16.98;10.57;;;2.60;99.90;;;;;;5030689;28;20209;-75
2021/12/20 07:39:42;;;;;;;17.83;10.82;;;2.60;99.90;;;;;;5030590;28;20219;-75
2021/12/20 07:42:09;;;;;;;20.40;11.15;;;2.60;99.90;;;;;;5030035;28;20392;-75
2021/12/20 07:44:37;;;;;;;18.02;11.30;;;2.60;99.90;;;;;;5030577;28;20236;-75
2021/12/20 07:49:34;;;;;;;17.00;11.57;;;2.70;99.90;;;;;;5029136;28;20210;-74
2021/12/20 07:52:00;;;;;;;15.02;10.05;;;2.70;99.90;;;;;;5030002;28;20601;-73
2021/12/20 07:54:27;;;;;;;21.33;12.15;;;2.70;99.90;;;;;;5030784;28;20221;-74
2021/12/20 07:56:54;;;;;;;21.63;11.75;;;2.70;99.90;;;;;;5030409;28;20212;-73
2021/12/20 07:59:20;;;;;;;19.60;12.20;;;2.70;99.90;;;;;;5031028;28;20281;-73
2021/12/20 08:01:49;;;;;;;16.95;10.38;;;2.70;99.90;;;;;;5029901;28;20562;-75
2021/12/20 08:04:15;;;;;;;18.90;11.63;;;2.70;99.90;;;;;;5030589;28;20256;-75
2021/12/20 08:06:43;;;;;;;20.52;12.18;;;2.80;99.90;;;;;;5025148;28;20205;-73
2021/12/20 08:09:11;;;;;;;17.98;10.60;;;2.80;99.90;;;;;;5027374;28;20201;-74
2021/12/20 08:11:38;;;;;;;18.95;11.80;;;2.80;99.90;;;;;;5027805;28;20648;-75
2021/12/20 08:14:06;;;;;;;19.42;11.75;;;2.80;99.90;;;;;;5032194;28;20304;-75
2021/12/20 08:16:33;;;;;;;19.17;11.25;;;2.90;99.90;;;;;;5034107;28;20231;-76
2021/12/20 08:19:01;;;;;;;22.92;10.73;;;2.90;99.90;;;;;;5033617;28;20198;-75
2021/12/20 08:21:28;;;;;;;20.38;12.35;;;2.90;99.90;;;;;;5033131;28;20197;-75
2021/12/20 08:23:55;;;;;;;17.08;11.10;;;3.00;99.90;;;;;;5032955;28;20336;-75
2021/12/20 08:26:22;;;;;;;19.40;12.45;;;2.90;99.90;;;;;;5034008;28;20288;-76
2021/12/20 08:28:49;;;;;;;17.98;11.05;;;3.00;99.90;;;;;;5033198;28;20642;-75
2021/12/20 08:31:15;;;;;;;17.70;11.88;;;3.00;99.90;;;;;;5033445;28;20198;-75
2021/12/20 08:33:42;;;;;;;18.25;11.43;;;3.10;99.90;;;;;;5033047;28;20227;-75
2021/12/20 08:36:12;;;;;;;21.23;11.75;;;3.10;99.90;;;;;;5033939;28;20209;-75
2021/12/20 08:38:40;;;;;;;18.85;11.57;;;3.10;99.90;;;;;;5033263;28;20680;-75
2021/12/20 08:41:08;;;;;;;20.52;12.02;;;3.20;99.90;;;;;;5033327;28;20202;-75
2021/12/20 08:43:34;;;;;;;18.58;12.07;;;3.20;99.90;;;;;;5033300;28;20240;-75
2021/12/20 08:46:02;;;;;;;18.38;11.85;;;3.20;99.90;;;;;;5033310;28;20251;-75
2021/12/20 08:48:30;;;;;;;20.15;12.05;;;3.20;99.90;;;;;;5033346;28;20252;-75
2021/12/20 08:50:57;;;;;;;19.88;12.20;;;3.20;99.90;;;;;;5032404;28;20264;-75
2021/12/20 08:53:25;;;;;;;17.92;11.10;;;3.30;99.90;;;;;;5033202;28;20233;-75
2021/12/20 08:55:52;;;;;;;20.80;11.32;;;3.30;99.90;;;;;;5033138;28;20197;-75
2021/12/20 08:58:19;;;;;;;16.67;11.10;;;3.30;99.90;;;;;;5033201;28;20206;-75
2021/12/20 09:00:46;;;;;;;21.67;11.80;;;3.40;99.90;;;;;;5032842;28;20213;-76
2021/12/20 09:03:13;;;;;;;21.83;13.70;;;3.40;99.90;;;;;;5033019;28;20696;-75
2021/12/20 09:05:40;;;;;;;17.48;11.68;;;3.50;99.90;;;;;;5032979;28;20212;-75
2021/12/20 09:08:09;;;;;;;19.13;11.55;;;3.60;99.90;;;;;;5032729;28;20206;-74
2021/12/20 09:10:38;;;;;;;18.63;12.38;;;3.60;99.90;;;;;;5032879;28;20580;-74
2021/12/20 09:13:05;;;;;;;14.95;10.70;;;3.70;99.90;;;;;;5032061;28;20222;-74
2021/12/20 09:15:33;;;;;;;19.25;12.02;;;3.70;99.90;;;;;;5032530;28;20197;-74
2021/12/20 09:18:00;;;;;;;16.08;10.63;;;3.70;99.90;;;;;;5032387;28;20201;-74
2021/12/20 09:20:28;;;;;;;20.17;13.15;;;3.70;99.90;;;;;;5032805;28;20201;-74
2021/12/20 09:23:02;;;;;;;20.65;14.10;;;3.70;99.90;;;;;;5031558;28;20229;-75
2021/12/20 09:25:29;;;;;;;21.25;13.02;;;3.70;99.90;;;;;;5031715;28;20201;-74
2021/12/20 09:27:59;;;;;;;18.67;11.70;;;3.70;99.90;;;;;;5031964;28;20661;-74
2021/12/20 09:30:28;;;;;;;19.52;12.27;;;3.70;99.90;;;;;;5032420;28;20205;-75
2021/12/20 09:32:55;;;;;;;19.92;12.40;;;3.70;99.90;;;;;;5031669;28;20218;-75
2021/12/20 09:35:22;;;;;;;20.80;12.77;;;3.70;99.90;;;;;;5032819;28;20202;-75
2021/12/20 09:37:51;;;;;;;21.33;12.40;;;3.70;99.90;;;;;;5032145;28;20772;-75
2021/12/20 09:40:27;;;;;;;22.48;12.85;;;3.70;99.90;;;;;;5032334;28;20232;-74
2021/12/20 09:42:56;;;;;;;17.40;11.27;;;3.70;99.90;;;;;;5031341;28;20231;-75
2021/12/20 09:45:24;;;;;;;17.45;12.30;;;3.70;99.90;;;;;;5032332;28;20205;-75
2021/12/20 09:47:52;;;;;;;19.88;12.40;;;3.70;99.90;;;;;;5032028;28;20222;-75
2021/12/20 09:50:20;;;;;;;21.30;13.07;;;3.70;99.90;;;;;;5031841;28;20233;-75
2021/12/20 09:52:47;;;;;;;24.13;14.05;;;3.70;99.90;;;;;;5030974;28;20745;-75
2021/12/20 09:55:15;;;;;;;26.52;15.07;;;3.80;99.90;;;;;;5031808;28;20201;-75
2021/12/20 09:57:43;;;;;;;22.95;14.82;;;3.80;99.90;;;;;;5031326;28;20205;-74
2021/12/20 10:00:13;;;;;;;24.67;14.25;;;3.80;99.90;;;;;;5032032;28;20209;-74
2021/12/20 10:02:42;;;;;;;20.13;13.20;;;3.80;99.90;;;;;;5031004;28;20301;-74
2021/12/20 10:05:10;;;;;;;23.08;14.98;;;3.90;99.90;;;;;;5031348;28;20197;-74
2021/12/20 10:07:38;;;;;;;21.45;14.30;;;4.00;99.90;;;;;;5031473;28;20581;-75
2021/12/20 10:10:06;;;;;;;22.48;13.15;;;4.00;99.90;;;;;;5030807;28;20263;-74
2021/12/20 10:12:33;;;;;;;25.23;14.40;;;4.10;99.90;;;;;;5029638;28;20227;-74
2021/12/20 10:15:03;;;;;;;19.92;12.50;;;4.10;99.90;;;;;;5031757;28;20209;-74
2021/12/20 10:17:35;;;;;;;20.13;12.73;;;4.20;99.90;;;;;;5031533;28;20197;-75
2021/12/20 10:20:16;;;;;;;18.77;12.32;;;4.30;99.90;;;;;;5030673;28;20618;-74
2021/12/20 10:22:43;;;;;;;22.23;12.02;;;4.40;99.90;;;;;;5010779;28;20222;-74
2021/12/20 10:25:25;;;;;;;16.85;11.23;;;4.40;99.90;;;;;;5011662;28;20198;-75
2021/12/20 10:27:52;;;;;;;26.27;12.05;;;4.50;99.90;;;;;;5011068;28;20203;-75
2021/12/20 10:30:26;;;;;;;20.33;11.57;;;4.60;99.90;;;;;;5014504;28;20236;-74
2021/12/20 10:32:55;;;;;;;19.92;12.82;;;4.60;99.90;;;;;;5030543;28;20218;-74
2021/12/20 10:35:37;;;;;;;18.77;12.05;;;4.70;99.90;;;;;;5030934;28;20209;-75
2021/12/20 10:38:07;;;;;;;16.52;10.68;;;4.90;99.90;;;;;;5030197;28;20214;-75
2021/12/20 10:40:46;;;;;;;19.85;11.85;;;5.20;99.90;;;;;;5030982;28;20573;-75
2021/12/20 10:43:15;;;;;;;22.00;11.68;;;5.70;99.90;;;;;;5030273;28;20601;-74
2021/12/20 10:45:42;;;;;;;14.98;10.70;;;6.30;99.90;;;;;;5030756;28;20205;-74
2021/12/20 10:48:12;;;;;;;12.57;7.95;;;7.40;99.90;;;;;;5031076;28;20264;-74
2021/12/20 10:50:42;;;;;;;14.73;8.88;;;8.50;99.90;;;;;;5030748;28;20205;-74
2021/12/20 10:53:21;;;;;;;10.55;7.20;;;9.80;99.90;;;;;;5030670;28;20320;-74
2021/12/20 10:55:49;;;;;;;14.35;8.20;;;11.40;99.90;;;;;;5030815;28;20202;-73
2021/12/20 10:58:34;;;;;;;11.18;7.00;;;11.40;99.90;;;;;;5030481;28;20205;-76
2021/12/20 11:01:19;;;;;;;9.75;6.88;;;11.20;99.90;;;;;;5030153;28;20565;-75
2021/12/20 11:03:57;;;;;;;11.43;8.25;;;10.70;99.90;;;;;;5030591;28;20272;-75
2021/12/20 11:06:40;;;;;;;9.55;7.35;;;9.80;99.90;;;;;;5030494;28;20217;-75
2021/12/20 11:09:15;;;;;;;10.35;8.05;;;9.00;99.90;;;;;;5030938;28;20212;-74
2021/12/20 11:11:50;;;;;;;10.52;8.30;;;8.30;99.90;;;;;;5029911;28;20456;-74
2021/12/20 11:14:19;;;;;;;11.80;7.85;;;7.90;99.90;;;;;;5030713;28;20217;-74
2021/12/20 11:16:49;;;;;;;10.68;6.85;;;8.60;99.90;;;;;;5030172;28;20201;-74
2021/12/20 11:19:29;;;;;;;12.07;7.07;;;9.30;99.90;;;;;;5030260;28;20209;-74
2021/12/20 11:21:58;;;;;;;9.82;6.25;;;10.40;99.90;;;;;;5029950;28;20720;-75
2021/12/20 11:24:31;;;;;;;8.52;6.53;;;12.40;99.90;;;;;;5030013;28;20696;-74
2021/12/20 11:26:59;;;;;;;8.95;5.50;;;14.10;99.90;;;;;;5029616;28;20202;-74
2021/12/20 11:29:26;;;;;;;8.00;6.65;;;14.10;99.90;;;;;;5030140;28;20209;-74
2021/12/20 11:31:55;;;;;;;9.77;6.57;;;13.00;99.90;;;;;;5029519;28;20197;-74
2021/12/20 11:34:24;;;;;;;10.02;7.28;;;11.60;99.90;;;;;;5029794;28;20225;-73
2021/12/20 11:36:52;;;;;;;9.93;7.45;;;10.10;99.90;;;;;;5029913;28;20197;-74
2021/12/20 11:39:18;;;;;;;9.75;7.05;;;9.10;99.90;;;;;;5030240;28;20259;-74
2021/12/20 11:41:45;;;;;;;10.30;7.57;;;8.30;99.90;;;;;;5026888;28;20220;-74
2021/12/20 11:44:16;;;;;;;11.43;7.63;;;7.50;99.90;;;;;;5031882;28;20225;-74
2021/12/20 11:46:50;;;;;;;9.77;8.05;;;7.10;99.90;;;;;;5029505;28;20197;-74
2021/12/20 11:49:21;;;;;;;10.32;7.70;;;6.60;99.90;;;;;;5030271;28;20220;-74
2021/12/20 11:52:01;;;;;;;15.82;8.10;;;6.30;99.90;;;;;;5029085;28;20213;-74
2021/12/20 11:54:40;;;;;;;13.57;8.77;;;6.20;99.90;;;;;;5030781;28;20214;-75
2021/12/20 11:57:09;;;;;;;15.60;9.65;;;6.00;99.90;;;;;;5028295;28;20280;-74
2021/12/20 11:59:56;;;;;;;16.23;8.00;;;6.00;99.90;;;;;;5030174;28;20210;-74
2021/12/20 12:02:26;;;;;;;9.95;6.78;;;6.80;99.90;;;;;;5029122;28;20202;-75
2021/12/20 12:05:00;;;;;;;14.45;7.57;;;8.20;99.90;;;;;;5029540;28;20225;-75
2021/12/20 12:07:30;;;;;;;10.90;7.22;;;9.70;99.90;;;;;;5029935;28;20680;-75
2021/12/20 12:09:59;;;;;;;10.55;6.60;;;11.00;99.90;;;;;;5029780;28;20228;-75
2021/12/20 12:12:27;;;;;;;13.40;6.90;;;11.50;99.90;;;;;;5029013;28;20462;-75
2021/12/20 12:15:08;;;;;;;7.60;6.15;;;12.10;99.90;;;;;;5029499;28;20206;-75
2021/12/20 12:17:56;;;;;;;12.05;7.40;;;12.20;99.90;;;;;;5029547;28;20197;-75
2021/12/20 12:20:44;;;;;;;11.77;7.80;;;12.70;99.90;;;;;;5029425;28;20208;-75
2021/12/20 12:23:21;;;;;;;10.13;6.35;;;12.60;99.90;;;;;;5029269;28;20229;-75
2021/12/20 12:25:51;;;;;;;8.02;6.13;;;12.20;99.90;;;;;;5029811;28;20566;-75
2021/12/20 12:28:21;;;;;;;9.70;6.65;;;11.30;99.90;;;;;;5029832;28;20224;-75
2021/12/20 12:31:03;;;;;;;9.70;6.78;;;10.30;99.90;;;;;;5029243;28;20210;-75
2021/12/20 12:33:33;;;;;;;11.73;6.63;;;9.40;99.90;;;;;;5026524;28;20213;-75
2021/12/20 12:36:24;;;;;;;9.45;6.72;;;8.70;99.90;;;;;;5029225;28;20239;-74
2021/12/20 12:38:56;;;;;;;9.05;6.35;;;8.10;99.90;;;;;;5028930;28;20296;-74
2021/12/20 12:41:25;;;;;;;11.30;7.07;;;7.40;99.90;;;;;;5028855;28;20400;-75
2021/12/20 12:44:05;;;;;;;14.60;8.07;;;7.00;99.90;;;;;;5029424;28;20641;-75
2021/12/20 12:47:04;;;;;;;10.80;7.78;;;6.70;99.90;;;;;;5030044;28;20568;-74
2021/12/20 12:49:49;;;;;;;9.65;6.45;;;6.40;99.90;;;;;;5029499;28;20577;-74
2021/12/20 12:52:36;;;;;;;13.10;8.35;;;6.10;99.90;;;;;;5023404;28;20441;-74
2021/12/20 12:55:07;;;;;;;11.43;7.00;;;6.00;99.90;;;;;;5029518;28;20193;-74
2021/12/20 12:57:36;;;;;;;13.25;8.38;;;5.90;99.90;;;;;;5028848;28;20649;-74